This is the latest recevied weather packets stored in our database for station/object CRYC. If no packets are shown the sender has not sent any weather packets the latest 10 day(s).
| Time | Temp. | Humidity | Pressure | Rain* | Wind** | Luminosity | Snow |
|---|---|---|---|---|---|---|---|
| 1777980954 | 18.89° C | - | - | 0 mm | 5.81 m/s, 256° | - | - |
| 1777980348 | 19.44° C | - | - | 0 mm | 5.36 m/s, 260° | - | - |
| 1777979752 | 21.11° C | - | - | 0 mm | 4.92 m/s, 217° | - | - |
| 1777979138 | 17.78° C | - | - | 0 mm | 5.36 m/s, 257° | - | - |
| 1777978533 | 19.44° C | - | - | 0 mm | 3.58 m/s, 255° | - | - |
| 1777977928 | 18.33° C | - | - | 0 mm | 2.24 m/s, 264° | - | - |
| 1777977324 | 20° C | - | - | 0 mm | 4.47 m/s, 243° | - | - |
| 1777976719 | 16.11° C | - | - | 0 mm | 4.92 m/s, 259° | - | - |
| 1777976116 | 16.11° C | - | - | 0 mm | 4.47 m/s, 232° | - | - |
| 1777975509 | 16.11° C | - | - | 0 mm | 4.02 m/s, 253° | - | - |
| 1777974898 | 15.56° C | - | - | 0 mm | 3.58 m/s, 256° | - | - |
| 1777974292 | 15.56° C | - | - | 0 mm | 4.47 m/s, 210° | - | - |
| 1777973684 | 16.11° C | - | - | 0 mm | 4.02 m/s, 229° | - | - |
| 1777972470 | 16.11° C | - | - | 0 mm | 3.13 m/s, 248° | - | - |
| 1777971862 | 16.11° C | - | - | 0 mm | 3.58 m/s, 252° | - | - |
| 1777971256 | 16.11° C | - | - | 0 mm | 4.92 m/s, 250° | - | - |
| 1777970645 | 16.67° C | - | - | 0 mm | 4.92 m/s, 245° | - | - |
| 1777970040 | 16.11° C | - | - | 0 mm | 4.47 m/s, 250° | - | - |
| 1777968823 | 16.67° C | - | - | 0 mm | 5.81 m/s, 246° | - | - |
| 1777968217 | 16.67° C | - | - | 0 mm | 4.47 m/s, 248° | - | - |
| 1777967615 | 16.67° C | - | - | 0 mm | 4.02 m/s, 225° | - | - |
| 1777967010 | 16.67° C | - | - | 0 mm | 4.47 m/s, 257° | - | - |
| 1777966402 | 16.67° C | - | - | 0 mm | 5.81 m/s, 257° | - | - |
| 1777965190 | 16.67° C | - | - | 0 mm | 6.26 m/s, 238° | - | - |
| 1777964577 | 16.67° C | - | - | 0 mm | 3.13 m/s, 226° | - | - |
* Rain latest hour (hover to see other rain measurements)
** Current wind speed in m/s (hover to see current wind gust speed)